Time;durP1;ratioP1;P1;durP2;ratioP2;P2;SDS_P1;SDS_P2;PMS_P1;PMS_P2;Temp;Humidity;BMP_temperature;BMP_pressure;BME280_temperature;BME280_humidity;BME280_pressure;Samples;Min_cycle;Max_cycle;Signal;HPM_P1;HPM_P2
2021/12/07 00:01:59;;;;;;;1.23;1.13;;;;;;;-5.72;66.24;100456.63;5063714;28;20093;-69
2021/12/07 00:04:25;;;;;;;1.42;1.33;;;;;;;-5.91;66.88;100456.34;5063855;28;20025;-69
2021/12/07 00:06:51;;;;;;;1.63;1.48;;;;;;;-5.88;66.69;100469.19;5063977;28;20029;-68
2021/12/07 00:09:17;;;;;;;2.05;1.50;;;;;;;-5.65;65.82;100452.81;5063673;28;20076;-69
2021/12/07 00:11:45;;;;;;;1.88;1.55;;;;;;;-5.85;66.57;100451.66;5063579;28;20037;-69
2021/12/07 00:14:15;;;;;;;1.17;1.08;;;;;;;-5.98;66.91;100443.34;5063627;28;20027;-69
2021/12/07 00:16:42;;;;;;;1.88;1.38;;;;;;;-5.98;67.05;100453.47;5063460;28;20020;-70
2021/12/07 00:19:09;;;;;;;2.03;1.70;;;;;;;-5.90;66.75;100453.03;5063667;28;20021;-68
2021/12/07 00:21:34;;;;;;;1.48;1.38;;;;;;;-5.80;65.82;100444.34;5063756;28;20496;-68
2021/12/07 00:24:00;;;;;;;1.35;1.25;;;;;;;-5.91;66.81;100462.25;5063950;28;20021;-69
2021/12/07 00:26:25;;;;;;;2.78;1.38;;;;;;;-5.96;66.66;100448.50;5063908;28;20025;-67
2021/12/07 00:28:51;;;;;;;1.20;1.10;;;;;;;-5.84;66.63;100443.28;5063532;28;20465;-69
2021/12/07 00:31:28;;;;;;;1.70;1.38;;;;;;;-5.79;65.77;100448.59;5062128;28;20021;-68
2021/12/07 00:34:09;;;;;;;2.63;1.60;;;;;;;-5.74;65.91;100450.63;5061991;28;20021;-69
2021/12/07 00:36:45;;;;;;;1.50;1.15;;;;;;;-5.77;65.42;100422.63;5063627;28;20086;-68
2021/12/07 00:39:13;;;;;;;1.27;1.17;;;;;;;-5.36;64.46;100435.03;5063354;28;20078;-69
2021/12/07 00:41:39;;;;;;;1.02;0.95;;;;;;;-5.49;64.27;100434.31;5063180;28;20107;-69
2021/12/07 00:44:06;;;;;;;1.42;1.08;;;;;;;-5.77;65.72;100432.75;5063361;28;20449;-68
2021/12/07 00:46:32;;;;;;;1.17;1.08;;;;;;;-5.63;65.54;100425.06;5063430;28;20025;-68
2021/12/07 00:48:58;;;;;;;1.40;1.30;;;;;;;-5.28;64.00;100428.75;5063055;28;20024;-71
2021/12/07 00:51:23;;;;;;;1.05;0.93;;;;;;;-5.61;64.68;100443.75;5063187;28;20055;-67
2021/12/07 00:53:48;;;;;;;3.40;2.22;;;;;;;-5.56;64.50;100421.25;5063087;28;20064;-69
2021/12/07 00:56:14;;;;;;;1.27;1.08;;;;;;;-5.55;65.03;100423.88;5063074;28;20035;-69
2021/12/07 00:58:39;;;;;;;1.35;1.15;;;;;;;-5.54;64.73;100424.75;5063268;28;20108;-68
2021/12/07 01:01:09;;;;;;;3.63;1.05;;;;;;;-5.81;66.08;100417.31;5063094;28;20025;-68
2021/12/07 01:03:35;;;;;;;1.92;1.20;;;;;;;-5.60;65.38;100410.94;5062908;28;20112;-69
2021/12/07 01:06:20;;;;;;;1.50;1.33;;;;;;;-5.36;64.42;100424.91;5063133;28;20060;-70
2021/12/07 01:25:47;;;;;;;1.45;1.33;;;;;;;-5.47;64.80;100404.94;5000628;28;20070;-69
2021/12/07 01:28:25;;;;;;;1.40;1.30;;;;;;;-5.32;64.06;100418.34;5000856;28;20038;-68
2021/12/07 01:37:03;;;;;;;3.08;1.73;;;;;;;-5.58;65.16;100417.75;5000688;28;20035;-69
2021/12/07 01:41:47;;;;;;;2.55;1.17;;;;;;;-5.48;64.87;100420.03;5000433;28;20034;-68
2021/12/07 01:59:57;;;;;;;1.90;1.00;;;;;;;-5.54;65.23;100410.41;5066328;28;20047;-68
2021/12/07 02:02:26;;;;;;;2.15;1.48;;;;;;;-5.35;65.13;100403.84;5066191;28;20372;-69
2021/12/07 02:04:52;;;;;;;1.33;1.13;;;;;;;-5.13;63.94;100398.34;5066211;28;20017;-69
2021/12/07 02:07:18;;;;;;;1.67;1.20;;;;;;;-5.37;64.61;100397.84;5066104;28;20017;-69
2021/12/07 02:09:48;;;;;;;1.80;1.20;;;;;;;-5.20;64.03;100398.78;5066311;28;20045;-68
2021/12/07 02:12:14;;;;;;;2.25;1.13;;;;;;;-5.36;64.56;100404.66;5065703;28;20044;-69
2021/12/07 02:14:41;;;;;;;1.13;1.02;;;;;;;-5.36;64.66;100414.78;5066146;28;20025;-69
2021/12/07 02:17:10;;;;;;;2.25;1.45;;;;;;;-5.50;65.18;100393.75;5065820;28;20020;-68
2021/12/07 02:19:36;;;;;;;2.92;1.20;;;;;;;-5.45;65.47;100409.19;5066108;28;20048;-68
2021/12/07 02:22:02;;;;;;;1.80;1.33;;;;;;;-5.37;65.46;100411.38;5066292;28;20052;-69
2021/12/07 02:24:28;;;;;;;0.98;0.90;;;;;;;-5.27;64.52;100399.25;5066431;28;20047;-68
2021/12/07 02:26:54;;;;;;;1.40;1.30;;;;;;;-5.10;64.36;100388.38;5064930;28;20025;-69
2021/12/07 02:29:20;;;;;;;1.38;1.10;;;;;;;-5.22;64.29;100383.53;5066324;28;20028;-69
2021/12/07 02:31:47;;;;;;;1.90;1.20;;;;;;;-5.10;64.59;100369.81;5065985;28;20553;-69
2021/12/07 02:34:13;;;;;;;4.30;1.25;;;;;;;-5.22;64.52;100393.66;5066360;28;20040;-69
2021/12/07 02:36:39;;;;;;;3.13;1.75;;;;;;;-5.31;64.77;100394.78;5066345;28;20033;-68
2021/12/07 02:39:08;;;;;;;1.65;1.00;;;;;;;-5.42;65.28;100396.72;5066286;28;20013;-68
2021/12/07 02:41:34;;;;;;;1.45;1.08;;;;;;;-5.32;65.32;100390.53;5065936;28;20074;-68
2021/12/07 02:44:00;;;;;;;1.73;1.02;;;;;;;-5.10;64.79;100390.06;5066073;28;20032;-69
2021/12/07 02:46:25;;;;;;;1.50;1.00;;;;;;;-5.03;64.52;100397.19;5066175;28;20025;-69
2021/12/07 02:48:51;;;;;;;0.73;0.73;;;;;;;-5.03;63.92;100379.47;5065689;28;20025;-69
2021/12/07 02:51:16;;;;;;;1.73;1.20;;;;;;;-4.97;63.72;100397.50;5065866;28;20037;-69
2021/12/07 02:53:42;;;;;;;1.55;0.95;;;;;;;-4.97;63.66;100384.00;5065863;28;20036;-68
2021/12/07 02:56:08;;;;;;;1.20;0.98;;;;;;;-5.06;63.56;100374.22;5065990;28;20113;-69
2021/12/07 02:58:35;;;;;;;1.40;1.10;;;;;;;-5.08;64.10;100374.94;5065333;28;20066;-68
2021/12/07 03:01:11;;;;;;;0.88;0.88;;;;;;;-5.01;63.90;100371.94;5065512;28;20031;-70
2021/12/07 03:03:51;;;;;;;1.20;0.75;;;;;;;-5.26;64.79;100385.78;5065699;28;20036;-68
2021/12/07 03:06:25;;;;;;;1.10;0.90;;;;;;;-4.94;64.17;100357.97;5065904;28;20465;-68
2021/12/07 03:09:36;;;;;;;0.82;0.82;;;;;;;-5.04;64.23;100382.78;5065320;28;20049;-69
2021/12/07 03:28:35;;;;;;;1.42;1.10;;;;;;;-5.20;65.08;100375.13;5022406;28;20025;-69
2021/12/07 03:31:02;;;;;;;1.50;1.00;;;;;;;-5.30;65.36;100372.09;5022321;28;20089;-69
2021/12/07 03:33:27;;;;;;;2.50;1.20;;;;;;;-5.02;64.63;100371.09;5022042;28;20029;-69
2021/12/07 03:35:53;;;;;;;2.60;1.52;;;;;;;-5.22;65.33;100388.59;5005842;28;20017;-69
2021/12/07 03:38:18;;;;;;;2.65;1.00;;;;;;;-5.31;65.96;100390.59;5022111;28;20121;-68
2021/12/07 03:40:44;;;;;;;1.52;1.33;;;;;;;-5.15;65.30;100378.78;5022090;28;20022;-70
2021/12/07 03:43:10;;;;;;;1.80;1.33;;;;;;;-5.27;65.51;100379.00;5022295;28;20022;-68
2021/12/07 03:45:36;;;;;;;2.28;1.30;;;;;;;-5.08;64.86;100380.88;5021857;28;20558;-68
2021/12/07 03:48:05;;;;;;;1.23;1.13;;;;;;;-5.25;65.80;100383.34;5021865;28;20059;-70
2021/12/07 03:50:30;;;;;;;1.20;1.00;;;;;;;-5.08;64.97;100378.34;5024022;28;20060;-69
2021/12/07 03:52:56;;;;;;;1.40;1.30;;;;;;;-5.00;65.04;100372.03;5064635;28;20017;-70
2021/12/07 03:55:23;;;;;;;2.42;1.08;;;;;;;-5.02;64.84;100381.22;5064201;28;20036;-68
2021/12/07 03:57:48;;;;;;;1.17;1.10;;;;;;;-5.04;64.57;100375.19;5064324;28;20029;-68
2021/12/07 04:00:21;;;;;;;1.55;1.40;;;;;;;-4.79;64.09;100379.03;5064031;28;20108;-69
2021/12/07 04:02:50;;;;;;;1.50;0.95;;;;;;;-4.88;64.08;100379.44;5062606;28;20100;-70
2021/12/07 04:05:18;;;;;;;1.67;0.90;;;;;;;-5.17;65.43;100395.53;5064231;28;20028;-69
2021/12/07 04:07:44;;;;;;;2.78;1.20;;;;;;;-5.10;65.94;100395.97;5064135;28;20452;-69
2021/12/07 04:10:13;;;;;;;2.83;1.35;;;;;;;-5.31;65.80;100362.78;5061741;28;20021;-69
2021/12/07 04:12:39;;;;;;;1.65;1.15;;;;;;;-5.00;65.74;100384.69;5062463;28;20025;-69
2021/12/07 04:15:08;;;;;;;1.40;1.27;;;;;;;-5.07;65.42;100392.75;5063910;28;20029;-66
2021/12/07 04:17:34;;;;;;;1.52;1.13;;;;;;;-4.85;64.99;100379.59;5063665;28;20028;-69
2021/12/07 04:19:59;;;;;;;2.20;1.23;;;;;;;-5.14;65.71;100385.59;5063837;28;20021;-69
2021/12/07 04:22:25;;;;;;;1.60;1.38;;;;;;;-4.86;65.21;100392.19;5063829;28;20462;-68
2021/12/07 04:24:51;;;;;;;1.55;1.27;;;;;;;-5.08;65.54;100387.59;5063629;28;20036;-68
2021/12/07 04:27:16;;;;;;;0.70;0.65;;;;;;;-4.99;65.45;100396.59;5063757;28;20028;-68
2021/12/07 04:29:41;;;;;;;1.90;1.70;;;;;;;-4.94;65.14;100401.00;5063511;28;20029;-68
2021/12/07 04:32:07;;;;;;;2.63;1.38;;;;;;;-5.07;65.61;100391.88;5061855;28;20026;-69
2021/12/07 04:34:33;;;;;;;1.75;1.25;;;;;;;-5.18;65.30;100378.63;5063754;28;20029;-68
2021/12/07 04:36:58;;;;;;;1.30;1.13;;;;;;;-5.05;65.71;100388.66;5063584;28;20134;-68
2021/12/07 04:39:23;;;;;;;1.40;1.20;;;;;;;-4.77;65.12;100385.06;5063512;28;20032;-69
2021/12/07 04:41:51;;;;;;;1.00;0.95;;;;;;;-4.99;65.37;100400.75;5063458;28;20083;-68
2021/12/07 04:44:16;;;;;;;1.52;1.42;;;;;;;-4.93;65.03;100390.09;5063654;28;20043;-69
2021/12/07 04:47:10;;;;;;;1.63;1.38;;;;;;;-4.87;65.37;100393.81;5063475;28;20025;-69
2021/12/07 04:57:45;;;;;;;1.10;1.00;;;;;;;-5.18;66.37;100391.28;5063264;28;20103;-70
2021/12/07 05:00:23;;;;;;;1.73;1.40;;;;;;;-4.54;64.38;100382.91;5063392;28;20108;-70
2021/12/07 05:02:59;;;;;;;4.20;1.55;;;;;;;-4.77;65.14;100395.19;5063127;28;20365;-69
2021/12/07 05:05:30;;;;;;;2.25;1.35;;;;;;;-5.10;66.12;100390.06;5061917;28;20028;-68
2021/12/07 05:07:59;;;;;;;3.25;1.40;;;;;;;-5.05;66.45;100391.19;5062992;28;20063;-69
2021/12/07 05:10:30;;;;;;;1.85;1.42;;;;;;;-5.03;66.28;100376.94;5062705;28;20130;-69
2021/12/07 05:23:59;;;;;;;1.27;0.85;;;;;;;-4.65;65.30;100386.53;5062883;28;20284;-69
2021/12/07 05:39:53;;;;;;;2.03;0.90;;;;;;;-4.67;65.58;100370.34;5062910;28;20040;-69
2021/12/07 05:42:22;;;;;;;1.58;1.05;;;;;;;-4.52;64.36;100348.34;5062662;28;20692;-70
2021/12/07 05:44:47;;;;;;;6.93;1.80;;;;;;;-4.61;64.68;100363.97;5062926;28;20088;-69
2021/12/07 05:47:13;;;;;;;1.98;1.13;;;;;;;-4.41;64.93;100381.00;5062308;28;20033;-71
2021/12/07 05:49:38;;;;;;;3.05;1.23;;;;;;;-4.60;64.27;100349.63;5061047;28;20021;-69
2021/12/07 05:52:04;;;;;;;1.83;1.65;;;;;;;-4.32;64.27;100371.31;5062593;28;20032;-70
2021/12/07 05:54:29;;;;;;;1.77;1.17;;;;;;;-4.62;65.19;100372.31;5062731;28;20111;-70
2021/12/07 05:56:55;;;;;;;2.63;1.00;;;;;;;-4.52;65.22;100375.38;5062594;28;20027;-70
2021/12/07 05:59:20;;;;;;;3.33;1.20;;;;;;;-4.54;64.78;100375.28;5062679;28;20560;-71
2021/12/07 06:01:46;;;;;;;1.25;1.02;;;;;;;-4.53;65.01;100366.88;5061059;28;20033;-70
2021/12/07 06:04:11;;;;;;;1.58;1.10;;;;;;;-4.71;65.79;100364.25;5062536;28;20029;-69
2021/12/07 06:06:36;;;;;;;5.80;1.45;;;;;;;-4.67;66.00;100377.97;5062458;28;20491;-69
2021/12/07 06:09:03;;;;;;;1.40;1.30;;;;;;;-4.58;65.60;100370.00;5062331;28;20041;-70
2021/12/07 06:11:28;;;;;;;2.38;1.35;;;;;;;-4.63;65.87;100367.19;5062389;28;20051;-69
2021/12/07 06:13:54;;;;;;;1.27;1.02;;;;;;;-4.52;65.65;100363.56;5062482;28;20025;-70
2021/12/07 06:16:19;;;;;;;2.05;1.45;;;;;;;-4.70;66.03;100365.13;5062641;28;20029;-70
2021/12/07 06:18:45;;;;;;;2.40;1.20;;;;;;;-4.64;65.93;100370.50;5062393;28;20029;-70
2021/12/07 06:21:12;;;;;;;1.73;1.27;;;;;;;-4.60;66.37;100367.38;5062121;28;20079;-71
2021/12/07 06:23:38;;;;;;;1.50;1.00;;;;;;;-4.69;66.42;100369.38;5062316;28;20033;-68
2021/12/07 06:26:04;;;;;;;2.03;1.30;;;;;;;-4.73;66.74;100381.91;5062543;28;20033;-70
2021/12/07 06:28:30;;;;;;;6.47;1.40;;;;;;;-4.66;66.39;100362.84;5062569;28;20025;-71
2021/12/07 06:30:56;;;;;;;3.03;1.55;;;;;;;-4.69;66.59;100384.59;5062456;28;20032;-70
2021/12/07 06:33:24;;;;;;;3.17;1.40;;;;;;;-4.70;66.39;100371.06;5063851;28;20407;-70
2021/12/07 06:35:56;;;;;;;1.80;1.38;;;;;;;-4.70;66.93;100383.75;5065996;28;20024;-70
2021/12/07 06:38:22;;;;;;;;;;;;;;;-4.60;66.50;100385.09;5066421;28;20032;-69
2021/12/07 06:40:48;;;;;;;1.58;1.38;;;;;;;-4.40;65.80;100381.06;5065950;28;19909;-68
2021/12/07 06:43:14;;;;;;;1.27;1.05;;;;;;;-4.64;66.68;100371.41;5065966;28;20051;-71
2021/12/07 06:45:39;;;;;;;1.58;1.38;;;;;;;-4.68;66.56;100369.47;5065650;28;20029;-69
2021/12/07 06:48:06;;;;;;;1.55;1.35;;;;;;;-4.60;66.54;100367.38;5065564;28;20021;-70
2021/12/07 06:50:31;;;;;;;1.17;1.08;;;;;;;-4.68;67.35;100368.63;5065808;28;20025;-70
2021/12/07 06:52:56;;;;;;;2.15;1.10;;;;;;;-4.57;67.02;100369.19;5065613;28;20031;-70
2021/12/07 06:55:22;;;;;;;2.95;1.63;;;;;;;-4.46;66.61;100379.88;5065748;28;20035;-70
2021/12/07 06:57:48;;;;;;;3.22;1.60;;;;;;;-4.37;66.12;100387.97;5065630;28;20516;-69
2021/12/07 07:00:15;;;;;;;1.23;1.13;;;;;;;-4.41;66.48;100365.78;5065605;28;20024;-71
2021/12/07 07:02:41;;;;;;;1.30;1.20;;;;;;;-4.33;65.94;100376.31;5065513;28;20032;-71
2021/12/07 07:05:07;;;;;;;2.15;1.30;;;;;;;-4.06;65.35;100383.59;5064219;28;20024;-71
2021/12/07 07:07:34;;;;;;;2.28;1.20;;;;;;;-4.55;66.26;100380.28;5065245;28;20035;-70
2021/12/07 07:10:00;;;;;;;1.33;1.15;;;;;;;-4.66;67.07;100375.50;5065586;28;20341;-70
2021/12/07 07:12:26;;;;;;;0.98;0.90;;;;;;;-4.49;66.68;100380.59;5064027;28;20025;-71
2021/12/07 07:14:52;;;;;;;3.05;1.00;;;;;;;-4.41;66.68;100406.34;5065364;28;20509;-70
2021/12/07 07:17:17;;;;;;;3.08;1.40;;;;;;;-4.53;67.00;100391.34;5063720;28;20036;-70
2021/12/07 07:19:44;;;;;;;2.03;1.30;;;;;;;-4.55;67.42;100403.09;5065042;28;20028;-70
2021/12/07 07:22:09;;;;;;;1.40;1.23;;;;;;;-4.20;66.10;100385.44;5065198;28;20112;-71
2021/12/07 07:24:35;;;;;;;1.88;1.30;;;;;;;-4.26;66.03;100383.44;5065509;28;20377;-70
2021/12/07 07:27:00;;;;;;;2.90;1.20;;;;;;;-4.32;66.55;100393.25;5065344;28;20021;-71
2021/12/07 07:29:26;;;;;;;1.50;1.40;;;;;;;-4.51;67.29;100395.72;5065240;28;20492;-72
2021/12/07 07:31:52;;;;;;;5.88;1.77;;;;;;;-4.62;67.79;100392.59;5064990;28;20036;-72
2021/12/07 07:34:18;;;;;;;0.90;0.90;;;;;;;-4.50;67.90;100378.84;5064907;28;20032;-71
2021/12/07 07:36:43;;;;;;;2.13;1.05;;;;;;;-4.46;67.06;100379.88;5065264;28;20064;-70
2021/12/07 07:39:09;;;;;;;1.05;0.95;;;;;;;-4.43;67.68;100383.44;5065052;28;20416;-71
2021/12/07 07:41:35;;;;;;;1.90;1.05;;;;;;;-4.21;67.08;100382.00;5064538;28;20488;-70
2021/12/07 07:44:00;;;;;;;1.33;1.17;;;;;;;-4.51;68.01;100392.31;5064432;28;20029;-70
2021/12/07 07:46:26;;;;;;;1.75;1.35;;;;;;;-4.54;68.11;100380.34;5064711;28;20017;-70
2021/12/07 07:48:51;;;;;;;1.20;1.10;;;;;;;-4.37;68.32;100372.75;5064318;28;20028;-71
2021/12/07 07:51:17;;;;;;;1.27;1.10;;;;;;;-4.49;68.32;100378.06;5062927;28;20415;-71
2021/12/07 07:53:42;;;;;;;1.83;1.63;;;;;;;-4.32;68.13;100375.53;5064614;28;20029;-72
2021/12/07 07:56:07;;;;;;;1.10;1.05;;;;;;;-4.38;67.91;100381.16;5064725;28;20028;-71
2021/12/07 07:58:33;;;;;;;2.15;1.40;;;;;;;-4.23;67.49;100355.69;5064828;28;20055;-71
2021/12/07 08:00:58;;;;;;;2.05;1.55;;;;;;;-4.45;68.22;100395.16;5062955;28;20044;-70
2021/12/07 08:03:24;;;;;;;0.77;0.77;;;;;;;-4.21;67.82;100386.22;5064264;28;20025;-70
2021/12/07 08:05:49;;;;;;;1.80;1.00;;;;;;;-4.48;68.71;100385.75;5064520;28;20032;-70
2021/12/07 08:08:15;;;;;;;2.03;1.50;;;;;;;-4.34;68.68;100383.03;5062791;28;20041;-69
2021/12/07 08:10:40;;;;;;;2.83;1.90;;;;;;;-4.36;69.00;100392.25;5062772;28;20074;-69
2021/12/07 08:13:08;;;;;;;1.20;1.10;;;;;;;-4.06;68.48;100392.09;5064188;28;20504;-70
2021/12/07 08:15:39;;;;;;;1.60;1.27;;;;;;;-4.29;68.86;100395.94;5064215;28;20055;-69
2021/12/07 08:18:05;;;;;;;1.70;1.60;;;;;;;-4.30;69.44;100391.69;5062470;28;20096;-71
2021/12/07 08:20:30;;;;;;;1.45;1.27;;;;;;;-4.19;68.79;100388.03;5062803;28;20441;-69
2021/12/07 08:22:56;;;;;;;1.60;1.25;;;;;;;-4.05;68.51;100400.53;5064428;28;20029;-68
2021/12/07 08:25:21;;;;;;;4.60;1.60;;;;;;;-4.02;68.70;100398.16;5064228;28;20028;-70
2021/12/07 08:27:47;;;;;;;1.42;1.10;;;;;;;-3.95;68.30;100386.66;5063439;28;20025;-70
2021/12/07 08:30:14;;;;;;;1.10;1.00;;;;;;;-3.92;67.77;100369.94;5064016;28;20048;-69
2021/12/07 08:32:45;;;;;;;1.88;1.52;;;;;;;-3.92;68.31;100396.97;5063812;28;20113;-70
2021/12/07 08:35:15;;;;;;;0.80;0.80;;;;;;;-3.64;67.02;100383.09;5064075;28;20048;-71
2021/12/07 08:37:41;;;;;;;1.45;1.10;;;;;;;-3.82;67.87;100381.44;5063869;28;20080;-70
2021/12/07 08:40:09;;;;;;;3.22;1.73;;;;;;;-3.76;67.76;100389.34;5062811;28;20028;-71
2021/12/07 08:42:35;;;;;;;1.55;1.20;;;;;;;-3.70;67.38;100365.03;5063922;28;20028;-72
2021/12/07 08:45:00;;;;;;;2.70;1.52;;;;;;;-3.83;67.33;100378.81;5063851;28;20052;-69
2021/12/07 08:47:26;;;;;;;1.25;1.10;;;;;;;-3.86;67.82;100375.31;5063709;28;20013;-71
2021/12/07 08:49:54;;;;;;;2.08;1.45;;;;;;;-3.57;66.98;100402.06;5063634;28;20504;-71
2021/12/07 08:52:19;;;;;;;0.82;0.82;;;;;;;-3.78;67.73;100406.16;5063503;28;20101;-70
2021/12/07 08:59:55;;;;;;;1.77;1.40;;;;;;;-3.58;67.29;100408.81;5063601;28;20023;-71
2021/12/07 09:02:23;;;;;;;0.80;0.80;;;;;;;-3.66;67.36;100405.03;5061758;28;20044;-69
2021/12/07 09:04:50;;;;;;;1.75;1.30;;;;;;;-3.38;66.51;100402.16;5063621;28;20060;-71
2021/12/07 09:07:16;;;;;;;1.20;1.08;;;;;;;-3.58;66.73;100401.19;5062194;28;20051;-70
2021/12/07 09:09:43;;;;;;;1.00;0.90;;;;;;;-3.57;67.16;100400.38;5063282;28;20040;-71
2021/12/07 09:12:10;;;;;;;1.48;1.25;;;;;;;-3.63;67.35;100403.50;5063453;28;20032;-70
2021/12/07 09:14:36;;;;;;;1.23;0.90;;;;;;;-3.55;66.89;100387.78;5063293;28;20031;-71
2021/12/07 09:17:04;;;;;;;1.77;1.42;;;;;;;-3.61;67.21;100396.81;5063458;28;20021;-70
2021/12/07 09:19:30;;;;;;;2.65;1.60;;;;;;;-3.76;67.86;100398.59;5063201;28;20139;-70
2021/12/07 09:21:56;;;;;;;1.33;1.23;;;;;;;-3.78;68.54;100411.22;5063600;28;20051;-71
2021/12/07 09:24:22;;;;;;;1.02;0.90;;;;;;;-3.66;68.45;100410.09;5063579;28;20063;-70
2021/12/07 09:26:49;;;;;;;1.60;1.50;;;;;;;-3.69;68.44;100403.19;5063472;28;20033;-70
2021/12/07 09:29:14;;;;;;;2.15;1.45;;;;;;;-3.79;69.04;100389.19;5063254;28;20047;-71
2021/12/07 09:31:40;;;;;;;1.15;1.02;;;;;;;-3.42;68.20;100381.63;5063051;28;20025;-71
2021/12/07 09:34:11;;;;;;;1.55;1.40;;;;;;;-3.40;67.61;100402.88;5063226;28;20032;-71
2021/12/07 09:36:37;;;;;;;1.35;1.20;;;;;;;-3.53;68.37;100401.44;5063580;28;20021;-69
2021/12/07 09:39:04;;;;;;;3.45;1.63;;;;;;;-3.37;68.51;100398.81;5063215;28;20025;-71
2021/12/07 09:41:30;;;;;;;3.17;1.75;;;;;;;-3.24;68.10;100394.31;5063301;28;20195;-72
2021/12/07 09:43:56;;;;;;;1.48;1.23;;;;;;;-3.11;67.92;100378.00;5063193;28;20096;-71
2021/12/07 09:46:22;;;;;;;2.03;1.63;;;;;;;-2.99;68.46;100396.34;5063002;28;20079;-72
2021/12/07 09:48:49;;;;;;;2.92;1.58;;;;;;;-3.13;68.94;100385.53;5062872;28;20024;-72
2021/12/07 09:51:20;;;;;;;3.72;1.50;;;;;;;-3.21;69.76;100398.69;5063049;28;20017;-71
2021/12/07 09:53:48;;;;;;;2.75;1.83;;;;;;;-3.06;69.36;100396.00;5063306;28;20107;-72
2021/12/07 09:56:14;;;;;;;2.25;1.23;;;;;;;-3.02;69.43;100386.03;5063089;28;20043;-71
2021/12/07 09:58:40;;;;;;;2.70;2.40;;;;;;;-3.22;70.04;100420.66;5063092;28;20025;-71
2021/12/07 10:01:08;;;;;;;2.15;1.50;;;;;;;-2.93;69.93;100412.69;5061735;28;20397;-71
2021/12/07 10:03:35;;;;;;;4.68;1.45;;;;;;;-2.97;70.28;100423.50;5062849;28;20025;-70
2021/12/07 10:06:00;;;;;;;4.70;1.50;;;;;;;-3.34;71.59;100420.97;5062938;28;20028;-70
2021/12/07 10:08:26;;;;;;;2.15;1.63;;;;;;;-3.34;71.42;100418.41;5064555;28;20045;-70
2021/12/07 10:10:55;;;;;;;1.63;1.38;;;;;;;-3.07;71.40;100410.38;5066743;28;20047;-71
2021/12/07 10:13:23;;;;;;;1.67;1.20;;;;;;;-3.11;70.67;100423.72;5066545;28;20017;-71
2021/12/07 10:15:51;;;;;;;2.33;1.02;;;;;;;-3.16;71.27;100425.16;5066715;28;20051;-69
2021/12/07 10:18:20;;;;;;;1.20;1.10;;;;;;;-3.17;71.61;100416.69;5065199;28;20111;-70
2021/12/07 10:20:50;;;;;;;1.30;1.20;;;;;;;-2.94;71.15;100411.78;5066671;28;20037;-71
2021/12/07 10:23:19;;;;;;;2.15;1.65;;;;;;;-3.14;71.15;100418.50;5065096;28;20025;-69
2021/12/07 10:25:59;;;;;;;2.58;1.83;;;;;;;-3.34;72.45;100420.97;5066618;28;20443;-70
2021/12/07 10:28:50;;;;;;;0.90;0.85;;;;;;;-3.15;72.44;100424.38;5066434;28;20025;-71
2021/12/07 10:31:19;;;;;;;3.55;2.20;;;;;;;-3.24;72.40;100434.94;5065530;28;20067;-70
2021/12/07 10:33:49;;;;;;;2.40;1.70;;;;;;;-3.16;72.56;100425.16;5064595;28;20477;-70
2021/12/07 10:36:45;;;;;;;1.73;1.25;;;;;;;-3.11;72.72;100421.16;5066296;28;20021;-70
2021/12/07 10:39:25;;;;;;;2.10;1.50;;;;;;;-3.16;72.51;100418.41;5060901;28;20029;-70
2021/12/07 10:41:58;;;;;;;2.83;1.50;;;;;;;-3.15;72.58;100427.81;5066060;28;20032;-70
2021/12/07 10:44:27;;;;;;;1.48;1.17;;;;;;;-3.04;72.49;100423.22;5066160;28;20112;-70
2021/12/07 10:47:05;;;;;;;1.70;1.58;;;;;;;-3.11;72.80;100424.59;5064790;28;20029;-71
2021/12/07 10:50:09;;;;;;;2.33;1.45;;;;;;;-2.97;72.17;100410.81;5065763;28;20029;-72
2021/12/07 10:52:42;;;;;;;2.53;1.40;;;;;;;-3.18;73.10;100419.16;5003951;28;20033;-69
2021/12/07 10:55:28;;;;;;;2.65;1.38;;;;;;;-2.83;72.37;100406.38;5004088;28;20038;-71
2021/12/07 10:58:05;;;;;;;1.63;1.35;;;;;;;-2.88;72.31;100412.13;5003345;28;20041;-70
2021/12/07 11:00:40;;;;;;;2.55;1.70;;;;;;;-3.06;73.03;100418.84;5003808;28;20037;-69
2021/12/07 11:03:10;;;;;;;1.27;1.17;;;;;;;-3.06;72.96;100409.56;5003488;28;20090;-70
2021/12/07 11:05:46;;;;;;;2.53;1.25;;;;;;;-3.13;73.52;100418.56;5003840;28;20034;-69
2021/12/07 11:08:12;;;;;;;2.75;1.40;;;;;;;-3.16;73.42;100413.34;4987083;28;20088;-70
2021/12/07 11:10:42;;;;;;;2.50;1.45;;;;;;;-2.98;73.08;100404.84;5003506;28;20511;-70
2021/12/07 11:13:18;;;;;;;3.25;1.92;;;;;;;-2.81;72.34;100405.63;5003545;28;20114;-71
2021/12/07 11:15:52;;;;;;;1.15;1.05;;;;;;;-2.95;72.77;100409.19;5003797;28;20026;-70
2021/12/07 11:18:23;;;;;;;1.30;1.20;;;;;;;-2.84;73.32;100395.31;5002863;28;20443;-71
2021/12/07 11:20:48;;;;;;;1.52;1.38;;;;;;;-3.13;73.44;100388.09;5003549;28;20049;-69
2021/12/07 11:23:21;;;;;;;2.88;1.83;;;;;;;-3.05;73.67;100385.91;5003161;28;20034;-69
2021/12/07 11:31:22;;;;;;;2.70;1.55;;;;;;;-2.82;72.84;100378.47;5065068;28;20067;-70
2021/12/07 11:33:49;;;;;;;1.58;1.40;;;;;;;-2.78;73.08;100374.41;5065068;28;20404;-70
2021/12/07 11:36:19;;;;;;;1.67;1.35;;;;;;;-3.04;73.58;100374.97;5065332;28;20025;-70
2021/12/07 11:38:45;;;;;;;2.22;1.42;;;;;;;-2.89;73.27;100381.56;5065462;28;20280;-70
2021/12/07 11:41:16;;;;;;;1.95;1.63;;;;;;;-2.85;73.46;100363.09;5064802;28;20032;-71
2021/12/07 11:43:50;;;;;;;2.00;1.53;;;;;;;-2.97;73.76;100362.53;5065079;28;20021;-71
2021/12/07 11:46:21;;;;;;;1.67;1.35;;;;;;;-2.94;73.86;100362.69;5065003;28;20257;-70
2021/12/07 11:48:47;;;;;;;1.40;1.25;;;;;;;-2.54;72.30;100358.53;5064851;28;20035;-70
2021/12/07 11:51:12;;;;;;;3.15;2.00;;;;;;;-2.89;73.09;100363.78;5064788;28;20052;-69
2021/12/07 11:53:38;;;;;;;4.82;2.35;;;;;;;-2.97;74.03;100358.31;5065177;28;20033;-69
2021/12/07 11:56:04;;;;;;;3.10;1.67;;;;;;;-2.95;74.01;100376.16;5064864;28;20033;-70
2021/12/07 11:58:30;;;;;;;1.25;1.10;;;;;;;-2.67;72.82;100359.66;5064842;28;20098;-70
2021/12/07 12:00:57;;;;;;;1.52;1.23;;;;;;;-2.82;73.20;100342.03;5064545;28;20421;-70
2021/12/07 12:03:24;;;;;;;1.38;1.10;;;;;;;-2.81;73.07;100359.03;5064273;28;20032;-69
2021/12/07 12:05:52;;;;;;;2.42;2.00;;;;;;;-2.89;73.61;100351.06;5064839;28;20025;-69
2021/12/07 12:08:20;;;;;;;1.90;1.40;;;;;;;-2.84;73.84;100352.13;5064317;28;20051;-70
2021/12/07 12:10:56;;;;;;;3.08;1.60;;;;;;;-2.95;73.87;100366.88;5064469;28;20021;-69
2021/12/07 12:13:42;;;;;;;2.42;1.45;;;;;;;-2.96;73.94;100360.06;5064315;28;20025;-70
2021/12/07 12:16:21;;;;;;;3.45;1.60;;;;;;;-2.74;72.75;100355.94;5064515;28;20050;-70
2021/12/07 12:19:28;;;;;;;1.48;1.27;;;;;;;-2.73;72.67;100362.75;5064218;28;20477;-70
2021/12/07 12:22:04;;;;;;;1.40;1.15;;;;;;;-2.70;72.88;100347.66;5024138;28;20029;-70
2021/12/07 12:24:38;;;;;;;2.53;1.30;;;;;;;-2.85;72.80;100350.38;5064313;28;20105;-68
2021/12/07 12:27:14;;;;;;;1.35;1.25;;;;;;;-3.01;73.54;100367.47;5064193;28;20105;-69
2021/12/07 12:29:41;;;;;;;1.73;1.15;;;;;;;-2.79;72.74;100342.16;5063982;28;20020;-69
2021/12/07 12:32:08;;;;;;;2.83;1.60;;;;;;;-2.83;72.65;100346.25;5063440;28;20048;-70
2021/12/07 12:34:38;;;;;;;1.30;1.20;;;;;;;-2.96;73.34;100341.41;5063837;28;20091;-69
2021/12/07 12:37:11;;;;;;;1.73;1.30;;;;;;;-2.95;73.16;100332.97;5063980;28;20074;-70
2021/12/07 12:39:44;;;;;;;2.17;1.02;;;;;;;-3.10;72.68;100306.09;5063859;28;20025;-69
2021/12/07 12:42:14;;;;;;;1.73;1.15;;;;;;;-3.03;73.31;100325.00;5062467;28;20025;-69
2021/12/07 12:44:39;;;;;;;2.50;1.60;;;;;;;-2.94;72.83;100332.19;5062399;28;20025;-70
2021/12/07 12:47:06;;;;;;;1.40;1.23;;;;;;;-3.10;73.41;100318.78;5063675;28;20027;-69
2021/12/07 12:49:43;;;;;;;2.60;1.70;;;;;;;-2.93;73.27;100342.41;5063698;28;20064;-70
2021/12/07 12:52:10;;;;;;;1.83;1.52;;;;;;;-2.83;72.40;100340.28;5063763;28;20025;-70
2021/12/07 12:54:42;;;;;;;2.83;1.90;;;;;;;-2.87;72.45;100329.13;5063716;28;20020;-71
2021/12/07 12:57:14;;;;;;;2.10;1.33;;;;;;;-2.96;72.87;100319.41;5063627;28;20055;-70
2021/12/07 12:59:41;;;;;;;;;;;;;;;-2.90;72.44;100326.44;5096414;28;20020;-71
2021/12/07 13:02:06;;;;;;;1.35;1.05;;;;;;;-2.99;72.82;100325.22;5063170;28;20345;-71
2021/12/07 13:04:34;;;;;;;1.80;1.33;;;;;;;-3.03;72.94;100330.97;5063209;28;20051;-70
2021/12/07 13:07:27;;;;;;;4.20;1.60;;;;;;;-3.14;73.33;100314.34;5063509;28;20039;-70
2021/12/07 13:09:58;;;;;;;4.63;1.80;;;;;;;-3.17;74.02;100314.22;5062964;28;20056;-70
2021/12/07 13:12:38;;;;;;;2.13;1.25;;;;;;;-3.07;73.44;100308.78;5063110;28;20032;-71
2021/12/07 13:15:08;;;;;;;2.35;1.60;;;;;;;-2.86;72.45;100316.47;5063406;28;20029;-71